sensor_id;sensor_type;location;lat;lon;timestamp;temperature;humidity
27647;DHT22;42229;51.230;6.240;2023-11-19T00:01:23;14.30;99.90
27647;DHT22;42229;51.230;6.240;2023-11-19T00:03:49;14.30;99.90
27647;DHT22;42229;51.230;6.240;2023-11-19T00:06:16;14.30;99.90
27647;DHT22;42229;51.230;6.240;2023-11-19T00:08:42;14.40;99.90
27647;DHT22;42229;51.230;6.240;2023-11-19T00:11:11;14.40;99.90
27647;DHT22;42229;51.230;6.240;2023-11-19T00:13:41;14.40;99.90
27647;DHT22;42229;51.230;6.240;2023-11-19T00:16:08;14.50;99.90
27647;DHT22;42229;51.230;6.240;2023-11-19T00:18:35;14.50;99.90
27647;DHT22;42229;51.230;6.240;2023-11-19T00:21:05;14.50;99.90
27647;DHT22;42229;51.230;6.240;2023-11-19T00:23:31;14.50;99.90
27647;DHT22;42229;51.230;6.240;2023-11-19T00:25:58;14.60;99.90
27647;DHT22;42229;51.230;6.240;2023-11-19T00:28:24;14.60;99.90
27647;DHT22;42229;51.230;6.240;2023-11-19T00:30:50;14.70;99.90
27647;DHT22;42229;51.230;6.240;2023-11-19T00:33:17;14.70;99.90
27647;DHT22;42229;51.230;6.240;2023-11-19T00:35:43;14.70;99.90
27647;DHT22;42229;51.230;6.240;2023-11-19T00:38:09;14.70;99.90
27647;DHT22;42229;51.230;6.240;2023-11-19T00:40:36;14.70;99.90
27647;DHT22;42229;51.230;6.240;2023-11-19T00:43:02;14.80;99.90
27647;DHT22;42229;51.230;6.240;2023-11-19T00:45:28;14.70;99.90
27647;DHT22;42229;51.230;6.240;2023-11-19T00:47:55;14.70;99.90
27647;DHT22;42229;51.230;6.240;2023-11-19T00:50:21;14.70;99.90
27647;DHT22;42229;51.230;6.240;2023-11-19T00:52:48;14.70;99.90
27647;DHT22;42229;51.230;6.240;2023-11-19T00:55:15;14.70;99.90
27647;DHT22;42229;51.230;6.240;2023-11-19T00:57:41;14.70;99.90
27647;DHT22;42229;51.230;6.240;2023-11-19T01:00:08;14.60;99.90
27647;DHT22;42229;51.230;6.240;2023-11-19T01:02:45;14.70;99.90
27647;DHT22;42229;51.230;6.240;2023-11-19T01:05:12;14.70;99.90
27647;DHT22;42229;51.230;6.240;2023-11-19T01:07:41;14.70;99.90
27647;DHT22;42229;51.230;6.240;2023-11-19T01:10:07;14.70;99.90
27647;DHT22;42229;51.230;6.240;2023-11-19T01:12:34;14.70;99.90
27647;DHT22;42229;51.230;6.240;2023-11-19T01:15:00;14.70;99.90
27647;DHT22;42229;51.230;6.240;2023-11-19T01:17:27;14.70;99.90
27647;DHT22;42229;51.230;6.240;2023-11-19T01:19:53;14.70;99.90
27647;DHT22;42229;51.230;6.240;2023-11-19T01:22:20;14.70;99.90
27647;DHT22;42229;51.230;6.240;2023-11-19T01:24:47;14.70;99.90
27647;DHT22;42229;51.230;6.240;2023-11-19T01:27:13;14.70;99.90
27647;DHT22;42229;51.230;6.240;2023-11-19T01:29:39;14.80;99.90
27647;DHT22;42229;51.230;6.240;2023-11-19T01:32:06;14.70;99.90
27647;DHT22;42229;51.230;6.240;2023-11-19T01:34:35;14.80;99.90
27647;DHT22;42229;51.230;6.240;2023-11-19T01:37:01;14.80;99.90
27647;DHT22;42229;51.230;6.240;2023-11-19T01:39:28;14.80;99.90
27647;DHT22;42229;51.230;6.240;2023-11-19T01:41:54;14.80;99.90
27647;DHT22;42229;51.230;6.240;2023-11-19T01:44:20;14.90;99.90
27647;DHT22;42229;51.230;6.240;2023-11-19T01:46:46;14.80;99.90
27647;DHT22;42229;51.230;6.240;2023-11-19T01:49:15;14.90;99.90
27647;DHT22;42229;51.230;6.240;2023-11-19T01:51:43;14.80;99.90
27647;DHT22;42229;51.230;6.240;2023-11-19T01:54:10;14.80;99.90
27647;DHT22;42229;51.230;6.240;2023-11-19T01:56:37;14.90;99.90
27647;DHT22;42229;51.230;6.240;2023-11-19T01:59:06;14.90;99.90
27647;DHT22;42229;51.230;6.240;2023-11-19T02:01:33;14.90;99.90
27647;DHT22;42229;51.230;6.240;2023-11-19T02:04:04;14.90;99.90
27647;DHT22;42229;51.230;6.240;2023-11-19T02:06:30;14.90;99.90
27647;DHT22;42229;51.230;6.240;2023-11-19T02:08:58;14.90;99.90
27647;DHT22;42229;51.230;6.240;2023-11-19T02:11:24;14.90;99.90
27647;DHT22;42229;51.230;6.240;2023-11-19T02:13:58;14.90;99.90
27647;DHT22;42229;51.230;6.240;2023-11-19T02:16:24;14.90;99.90
27647;DHT22;42229;51.230;6.240;2023-11-19T02:18:50;14.90;99.90
27647;DHT22;42229;51.230;6.240;2023-11-19T02:21:16;15.00;99.90
27647;DHT22;42229;51.230;6.240;2023-11-19T02:23:43;15.00;99.90
27647;DHT22;42229;51.230;6.240;2023-11-19T02:28:54;14.90;99.90
27647;DHT22;42229;51.230;6.240;2023-11-19T02:31:21;14.90;99.90
27647;DHT22;42229;51.230;6.240;2023-11-19T02:33:48;14.90;99.90
27647;DHT22;42229;51.230;6.240;2023-11-19T02:36:16;14.90;99.90
27647;DHT22;42229;51.230;6.240;2023-11-19T02:38:42;14.90;99.90
27647;DHT22;42229;51.230;6.240;2023-11-19T02:41:08;14.80;99.90
27647;DHT22;42229;51.230;6.240;2023-11-19T02:43:36;14.80;99.90
27647;DHT22;42229;51.230;6.240;2023-11-19T02:46:03;14.80;99.90
27647;DHT22;42229;51.230;6.240;2023-11-19T02:48:35;14.90;99.90
27647;DHT22;42229;51.230;6.240;2023-11-19T02:51:01;14.90;99.90
27647;DHT22;42229;51.230;6.240;2023-11-19T02:53:35;14.90;99.90
27647;DHT22;42229;51.230;6.240;2023-11-19T02:56:03;15.00;99.90
27647;DHT22;42229;51.230;6.240;2023-11-19T02:58:46;15.00;99.90
27647;DHT22;42229;51.230;6.240;2023-11-19T03:01:13;15.00;99.90
27647;DHT22;42229;51.230;6.240;2023-11-19T03:03:49;15.10;99.90
27647;DHT22;42229;51.230;6.240;2023-11-19T03:06:20;15.00;99.90
27647;DHT22;42229;51.230;6.240;2023-11-19T03:08:47;15.10;99.90
27647;DHT22;42229;51.230;6.240;2023-11-19T03:11:14;15.10;99.90
27647;DHT22;42229;51.230;6.240;2023-11-19T03:13:40;15.10;99.90
27647;DHT22;42229;51.230;6.240;2023-11-19T03:16:07;15.10;99.90
27647;DHT22;42229;51.230;6.240;2023-11-19T03:18:33;15.10;99.90
27647;DHT22;42229;51.230;6.240;2023-11-19T03:20:59;15.10;99.90
27647;DHT22;42229;51.230;6.240;2023-11-19T03:23:26;15.10;99.90
27647;DHT22;42229;51.230;6.240;2023-11-19T03:25:55;15.10;99.90
27647;DHT22;42229;51.230;6.240;2023-11-19T03:28:22;15.10;99.90
27647;DHT22;42229;51.230;6.240;2023-11-19T03:30:49;15.10;99.90
27647;DHT22;42229;51.230;6.240;2023-11-19T03:33:15;15.10;99.90
27647;DHT22;42229;51.230;6.240;2023-11-19T03:35:41;15.00;99.90
27647;DHT22;42229;51.230;6.240;2023-11-19T03:38:08;15.10;99.90
27647;DHT22;42229;51.230;6.240;2023-11-19T03:40:34;15.00;99.90
27647;DHT22;42229;51.230;6.240;2023-11-19T03:43:01;15.00;99.90
27647;DHT22;42229;51.230;6.240;2023-11-19T03:45:27;14.90;99.90
27647;DHT22;42229;51.230;6.240;2023-11-19T03:47:53;14.90;99.90
27647;DHT22;42229;51.230;6.240;2023-11-19T03:50:20;14.90;99.90
27647;DHT22;42229;51.230;6.240;2023-11-19T03:52:46;14.80;99.90
27647;DHT22;42229;51.230;6.240;2023-11-19T03:55:13;14.80;99.90
27647;DHT22;42229;51.230;6.240;2023-11-19T03:57:39;14.90;99.90
27647;DHT22;42229;51.230;6.240;2023-11-19T04:00:05;14.90;99.90
27647;DHT22;42229;51.230;6.240;2023-11-19T04:02:39;14.80;99.90
27647;DHT22;42229;51.230;6.240;2023-11-19T04:05:06;14.80;99.90
27647;DHT22;42229;51.230;6.240;2023-11-19T04:07:33;14.80;99.90
27647;DHT22;42229;51.230;6.240;2023-11-19T04:09:59;14.80;99.90
27647;DHT22;42229;51.230;6.240;2023-11-19T04:12:26;14.80;99.90
27647;DHT22;42229;51.230;6.240;2023-11-19T04:14:52;14.80;99.90
27647;DHT22;42229;51.230;6.240;2023-11-19T04:17:19;14.80;99.90
27647;DHT22;42229;51.230;6.240;2023-11-19T04:19:45;14.80;99.90
27647;DHT22;42229;51.230;6.240;2023-11-19T04:22:11;14.70;99.90
27647;DHT22;42229;51.230;6.240;2023-11-19T04:24:37;14.70;99.90
27647;DHT22;42229;51.230;6.240;2023-11-19T04:27:05;14.60;99.90
27647;DHT22;42229;51.230;6.240;2023-11-19T04:29:32;14.60;99.90
27647;DHT22;42229;51.230;6.240;2023-11-19T04:31:58;14.60;99.90
27647;DHT22;42229;51.230;6.240;2023-11-19T04:34:26;14.50;99.90
27647;DHT22;42229;51.230;6.240;2023-11-19T04:36:53;14.50;99.90
27647;DHT22;42229;51.230;6.240;2023-11-19T04:39:20;14.50;99.90
27647;DHT22;42229;51.230;6.240;2023-11-19T04:41:47;14.50;99.90
27647;DHT22;42229;51.230;6.240;2023-11-19T04:44:18;14.50;99.90
27647;DHT22;42229;51.230;6.240;2023-11-19T04:46:44;14.60;99.90
27647;DHT22;42229;51.230;6.240;2023-11-19T04:49:11;14.60;99.90
27647;DHT22;42229;51.230;6.240;2023-11-19T04:51:41;14.60;99.90
27647;DHT22;42229;51.230;6.240;2023-11-19T04:54:08;14.50;99.90
27647;DHT22;42229;51.230;6.240;2023-11-19T04:56:38;14.50;99.90
27647;DHT22;42229;51.230;6.240;2023-11-19T04:59:04;14.50;99.90
27647;DHT22;42229;51.230;6.240;2023-11-19T05:01:35;14.50;99.90
27647;DHT22;42229;51.230;6.240;2023-11-19T05:04:01;14.50;99.90
27647;DHT22;42229;51.230;6.240;2023-11-19T05:06:31;14.50;99.90
27647;DHT22;42229;51.230;6.240;2023-11-19T05:08:57;14.50;99.90
27647;DHT22;42229;51.230;6.240;2023-11-19T05:11:26;14.50;99.90
27647;DHT22;42229;51.230;6.240;2023-11-19T05:13:54;14.50;99.90
27647;DHT22;42229;51.230;6.240;2023-11-19T05:16:20;14.50;99.90
27647;DHT22;42229;51.230;6.240;2023-11-19T05:18:47;14.50;99.90
27647;DHT22;42229;51.230;6.240;2023-11-19T05:21:13;14.50;99.90
27647;DHT22;42229;51.230;6.240;2023-11-19T05:23:39;14.50;99.90
27647;DHT22;42229;51.230;6.240;2023-11-19T05:26:07;14.50;99.90
27647;DHT22;42229;51.230;6.240;2023-11-19T05:28:34;14.50;99.90
27647;DHT22;42229;51.230;6.240;2023-11-19T05:31:00;14.50;99.90
27647;DHT22;42229;51.230;6.240;2023-11-19T05:33:26;14.50;99.90
27647;DHT22;42229;51.230;6.240;2023-11-19T05:35:53;14.50;99.90
27647;DHT22;42229;51.230;6.240;2023-11-19T05:38:19;14.60;99.90
27647;DHT22;42229;51.230;6.240;2023-11-19T05:40:46;14.50;99.90
27647;DHT22;42229;51.230;6.240;2023-11-19T05:43:14;14.50;99.90
27647;DHT22;42229;51.230;6.240;2023-11-19T05:45:42;14.60;99.90
27647;DHT22;42229;51.230;6.240;2023-11-19T05:48:09;14.60;99.90
27647;DHT22;42229;51.230;6.240;2023-11-19T05:50:35;14.60;99.90
27647;DHT22;42229;51.230;6.240;2023-11-19T05:53:01;14.60;99.90
27647;DHT22;42229;51.230;6.240;2023-11-19T05:55:28;14.60;99.90
27647;DHT22;42229;51.230;6.240;2023-11-19T05:57:54;14.60;99.90
27647;DHT22;42229;51.230;6.240;2023-11-19T06:00:21;14.60;99.90
27647;DHT22;42229;51.230;6.240;2023-11-19T06:02:47;14.60;99.90
27647;DHT22;42229;51.230;6.240;2023-11-19T06:05:13;14.60;99.90
27647;DHT22;42229;51.230;6.240;2023-11-19T06:07:39;14.60;99.90
27647;DHT22;42229;51.230;6.240;2023-11-19T06:10:07;14.50;99.90
27647;DHT22;42229;51.230;6.240;2023-11-19T06:12:35;14.60;99.90
27647;DHT22;42229;51.230;6.240;2023-11-19T06:15:04;14.50;99.90
27647;DHT22;42229;51.230;6.240;2023-11-19T06:17:32;14.50;99.90
27647;DHT22;42229;51.230;6.240;2023-11-19T06:19:58;14.50;99.90
27647;DHT22;42229;51.230;6.240;2023-11-19T06:22:24;14.40;99.90
27647;DHT22;42229;51.230;6.240;2023-11-19T06:24:50;14.40;99.90
27647;DHT22;42229;51.230;6.240;2023-11-19T06:27:17;14.40;99.90
27647;DHT22;42229;51.230;6.240;2023-11-19T06:29:43;14.40;99.90
27647;DHT22;42229;51.230;6.240;2023-11-19T06:32:09;14.30;99.90
27647;DHT22;42229;51.230;6.240;2023-11-19T06:34:35;14.30;99.90
27647;DHT22;42229;51.230;6.240;2023-11-19T06:37:01;14.30;99.90
27647;DHT22;42229;51.230;6.240;2023-11-19T06:39:30;14.20;99.90
27647;DHT22;42229;51.230;6.240;2023-11-19T06:41:56;14.20;99.90
27647;DHT22;42229;51.230;6.240;2023-11-19T06:44:22;14.10;99.90
27647;DHT22;42229;51.230;6.240;2023-11-19T06:46:48;14.10;99.90
27647;DHT22;42229;51.230;6.240;2023-11-19T06:49:15;14.00;99.90
27647;DHT22;42229;51.230;6.240;2023-11-19T06:51:42;14.00;99.90
27647;DHT22;42229;51.230;6.240;2023-11-19T06:54:09;14.00;99.90
27647;DHT22;42229;51.230;6.240;2023-11-19T06:56:35;14.00;99.90
27647;DHT22;42229;51.230;6.240;2023-11-19T06:59:02;13.90;99.90
27647;DHT22;42229;51.230;6.240;2023-11-19T07:01:33;13.90;99.90
27647;DHT22;42229;51.230;6.240;2023-11-19T07:04:01;13.80;99.90
27647;DHT22;42229;51.230;6.240;2023-11-19T07:06:34;13.80;99.90
27647;DHT22;42229;51.230;6.240;2023-11-19T07:09:00;13.80;99.90
27647;DHT22;42229;51.230;6.240;2023-11-19T07:11:35;13.70;99.90
27647;DHT22;42229;51.230;6.240;2023-11-19T07:14:02;13.70;99.90
27647;DHT22;42229;51.230;6.240;2023-11-19T07:16:29;13.70;99.90
27647;DHT22;42229;51.230;6.240;2023-11-19T07:18:55;13.70;99.90
27647;DHT22;42229;51.230;6.240;2023-11-19T07:21:21;13.60;99.90
27647;DHT22;42229;51.230;6.240;2023-11-19T07:23:47;13.60;99.90
27647;DHT22;42229;51.230;6.240;2023-11-19T07:26:14;13.60;99.90
27647;DHT22;42229;51.230;6.240;2023-11-19T07:28:40;13.50;99.90
27647;DHT22;42229;51.230;6.240;2023-11-19T07:31:06;13.60;99.90
27647;DHT22;42229;51.230;6.240;2023-11-19T07:33:33;13.50;99.90
27647;DHT22;42229;51.230;6.240;2023-11-19T07:36:00;13.50;99.90
27647;DHT22;42229;51.230;6.240;2023-11-19T07:38:26;13.50;99.90
27647;DHT22;42229;51.230;6.240;2023-11-19T07:40:52;13.60;99.90
27647;DHT22;42229;51.230;6.240;2023-11-19T07:43:18;13.60;99.90
27647;DHT22;42229;51.230;6.240;2023-11-19T07:45:45;13.50;99.90
27647;DHT22;42229;51.230;6.240;2023-11-19T07:48:11;13.50;99.90
27647;DHT22;42229;51.230;6.240;2023-11-19T07:50:39;13.60;99.90
27647;DHT22;42229;51.230;6.240;2023-11-19T07:53:08;13.50;99.90
27647;DHT22;42229;51.230;6.240;2023-11-19T07:55:34;13.50;99.90
27647;DHT22;42229;51.230;6.240;2023-11-19T07:58:01;13.60;99.90
27647;DHT22;42229;51.230;6.240;2023-11-19T08:00:27;13.60;99.90
27647;DHT22;42229;51.230;6.240;2023-11-19T08:02:53;13.70;99.90
27647;DHT22;42229;51.230;6.240;2023-11-19T08:05:19;13.70;99.90
27647;DHT22;42229;51.230;6.240;2023-11-19T08:07:45;13.70;99.90
27647;DHT22;42229;51.230;6.240;2023-11-19T08:10:12;13.70;99.90
27647;DHT22;42229;51.230;6.240;2023-11-19T08:12:38;13.70;99.90
27647;DHT22;42229;51.230;6.240;2023-11-19T08:15:05;13.80;99.90
27647;DHT22;42229;51.230;6.240;2023-11-19T08:17:31;13.80;99.90
27647;DHT22;42229;51.230;6.240;2023-11-19T08:19:57;13.80;99.90
27647;DHT22;42229;51.230;6.240;2023-11-19T08:22:26;13.80;99.90
27647;DHT22;42229;51.230;6.240;2023-11-19T08:24:52;13.80;99.90
27647;DHT22;42229;51.230;6.240;2023-11-19T08:27:18;13.90;99.90
27647;DHT22;42229;51.230;6.240;2023-11-19T08:29:45;13.90;99.90
27647;DHT22;42229;51.230;6.240;2023-11-19T08:32:11;14.00;99.90
27647;DHT22;42229;51.230;6.240;2023-11-19T08:34:37;14.00;99.90
27647;DHT22;42229;51.230;6.240;2023-11-19T08:37:04;14.00;99.90
27647;DHT22;42229;51.230;6.240;2023-11-19T08:39:30;14.00;99.90
27647;DHT22;42229;51.230;6.240;2023-11-19T08:41:56;14.00;99.90
27647;DHT22;42229;51.230;6.240;2023-11-19T08:44:22;14.10;99.90
27647;DHT22;42229;51.230;6.240;2023-11-19T08:46:49;14.10;99.90
27647;DHT22;42229;51.230;6.240;2023-11-19T08:49:15;14.10;99.90
27647;DHT22;42229;51.230;6.240;2023-11-19T08:51:41;14.20;99.90
27647;DHT22;42229;51.230;6.240;2023-11-19T08:54:08;14.20;99.90
27647;DHT22;42229;51.230;6.240;2023-11-19T08:56:34;14.30;99.90
27647;DHT22;42229;51.230;6.240;2023-11-19T08:59:01;14.30;99.90
27647;DHT22;42229;51.230;6.240;2023-11-19T09:01:27;14.30;99.90
27647;DHT22;42229;51.230;6.240;2023-11-19T09:03:54;14.40;99.90
27647;DHT22;42229;51.230;6.240;2023-11-19T09:06:21;14.40;99.90
27647;DHT22;42229;51.230;6.240;2023-11-19T09:08:47;14.40;99.90
27647;DHT22;42229;51.230;6.240;2023-11-19T09:11:13;14.50;99.90
27647;DHT22;42229;51.230;6.240;2023-11-19T09:13:40;14.60;99.90
27647;DHT22;42229;51.230;6.240;2023-11-19T09:16:06;14.60;99.90
27647;DHT22;42229;51.230;6.240;2023-11-19T09:18:32;14.60;99.90
27647;DHT22;42229;51.230;6.240;2023-11-19T09:21:16;14.70;99.90
27647;DHT22;42229;51.230;6.240;2023-11-19T09:23:43;14.70;99.90
27647;DHT22;42229;51.230;6.240;2023-11-19T09:26:10;14.60;99.90
27647;DHT22;42229;51.230;6.240;2023-11-19T09:28:37;14.70;99.90
27647;DHT22;42229;51.230;6.240;2023-11-19T09:31:03;14.70;99.90
27647;DHT22;42229;51.230;6.240;2023-11-19T09:33:38;14.70;99.90
27647;DHT22;42229;51.230;6.240;2023-11-19T09:36:04;14.80;99.90
27647;DHT22;42229;51.230;6.240;2023-11-19T09:38:32;14.80;99.90
27647;DHT22;42229;51.230;6.240;2023-11-19T09:40:58;14.80;99.90
27647;DHT22;42229;51.230;6.240;2023-11-19T09:43:26;14.80;99.90
27647;DHT22;42229;51.230;6.240;2023-11-19T09:45:54;14.90;99.90
27647;DHT22;42229;51.230;6.240;2023-11-19T09:48:20;15.00;99.90
27647;DHT22;42229;51.230;6.240;2023-11-19T09:50:47;15.00;99.90
27647;DHT22;42229;51.230;6.240;2023-11-19T09:53:14;15.10;99.90
27647;DHT22;42229;51.230;6.240;2023-11-19T09:55:41;15.10;99.90
27647;DHT22;42229;51.230;6.240;2023-11-19T09:58:07;15.10;99.90
27647;DHT22;42229;51.230;6.240;2023-11-19T10:00:34;15.10;99.90
27647;DHT22;42229;51.230;6.240;2023-11-19T10:03:00;15.10;99.90
27647;DHT22;42229;51.230;6.240;2023-11-19T10:05:26;15.10;99.90
27647;DHT22;42229;51.230;6.240;2023-11-19T10:07:52;15.10;99.90
27647;DHT22;42229;51.230;6.240;2023-11-19T10:10:21;15.20;99.90
27647;DHT22;42229;51.230;6.240;2023-11-19T10:12:47;15.30;99.90
27647;DHT22;42229;51.230;6.240;2023-11-19T10:15:17;15.20;99.90
27647;DHT22;42229;51.230;6.240;2023-11-19T10:17:46;15.30;99.90
27647;DHT22;42229;51.230;6.240;2023-11-19T10:20:13;15.30;99.90
27647;DHT22;42229;51.230;6.240;2023-11-19T10:22:39;15.30;99.90
27647;DHT22;42229;51.230;6.240;2023-11-19T10:25:19;15.40;99.90
27647;DHT22;42229;51.230;6.240;2023-11-19T10:27:48;15.30;99.90
27647;DHT22;42229;51.230;6.240;2023-11-19T10:30:17;15.40;99.90
27647;DHT22;42229;51.230;6.240;2023-11-19T10:32:54;15.40;99.90
27647;DHT22;42229;51.230;6.240;2023-11-19T10:35:28;15.40;99.90
27647;DHT22;42229;51.230;6.240;2023-11-19T10:37:54;15.50;99.90
27647;DHT22;42229;51.230;6.240;2023-11-19T10:40:21;15.50;99.90
27647;DHT22;42229;51.230;6.240;2023-11-19T10:42:47;15.50;99.90
27647;DHT22;42229;51.230;6.240;2023-11-19T10:45:23;15.50;99.90
27647;DHT22;42229;51.230;6.240;2023-11-19T10:47:51;15.50;99.90
27647;DHT22;42229;51.230;6.240;2023-11-19T10:50:17;15.60;99.90
27647;DHT22;42229;51.230;6.240;2023-11-19T10:52:43;15.60;99.90
27647;DHT22;42229;51.230;6.240;2023-11-19T10:55:11;15.60;99.90
27647;DHT22;42229;51.230;6.240;2023-11-19T10:57:40;15.60;99.90
27647;DHT22;42229;51.230;6.240;2023-11-19T11:00:10;15.60;99.90
27647;DHT22;42229;51.230;6.240;2023-11-19T11:02:40;15.70;99.90
27647;DHT22;42229;51.230;6.240;2023-11-19T11:05:08;15.70;99.90
27647;DHT22;42229;51.230;6.240;2023-11-19T11:07:34;15.80;99.90
27647;DHT22;42229;51.230;6.240;2023-11-19T11:10:01;15.80;99.90
27647;DHT22;42229;51.230;6.240;2023-11-19T11:12:27;15.80;99.90
27647;DHT22;42229;51.230;6.240;2023-11-19T11:14:54;15.90;99.90
27647;DHT22;42229;51.230;6.240;2023-11-19T11:17:20;16.00;99.90
27647;DHT22;42229;51.230;6.240;2023-11-19T11:19:50;16.10;99.90
27647;DHT22;42229;51.230;6.240;2023-11-19T11:22:16;16.10;99.90
27647;DHT22;42229;51.230;6.240;2023-11-19T11:30:35;16.10;99.90
27647;DHT22;42229;51.230;6.240;2023-11-19T11:33:21;16.10;99.90
27647;DHT22;42229;51.230;6.240;2023-11-19T11:35:55;16.20;99.90
27647;DHT22;42229;51.230;6.240;2023-11-19T11:38:29;16.40;99.90
27647;DHT22;42229;51.230;6.240;2023-11-19T11:43:45;16.70;99.90
27647;DHT22;42229;51.230;6.240;2023-11-19T11:49:03;17.00;99.90
27647;DHT22;42229;51.230;6.240;2023-11-19T11:54:33;16.90;99.90
27647;DHT22;42229;51.230;6.240;2023-11-19T11:57:02;16.80;99.90
27647;DHT22;42229;51.230;6.240;2023-11-19T11:59:36;16.80;99.90
27647;DHT22;42229;51.230;6.240;2023-11-19T12:02:04;16.70;99.90
27647;DHT22;42229;51.230;6.240;2023-11-19T12:04:34;16.60;99.90
27647;DHT22;42229;51.230;6.240;2023-11-19T12:07:14;16.60;99.90
27647;DHT22;42229;51.230;6.240;2023-11-19T12:09:42;16.60;99.90
27647;DHT22;42229;51.230;6.240;2023-11-19T12:20:08;16.20;99.90
27647;DHT22;42229;51.230;6.240;2023-11-19T12:22:36;16.00;99.90
27647;DHT22;42229;51.230;6.240;2023-11-19T12:25:03;15.70;99.90
27647;DHT22;42229;51.230;6.240;2023-11-19T12:27:31;15.50;99.90
27647;DHT22;42229;51.230;6.240;2023-11-19T12:30:00;15.30;99.90
27647;DHT22;42229;51.230;6.240;2023-11-19T12:32:26;15.30;99.90
27647;DHT22;42229;51.230;6.240;2023-11-19T12:34:52;15.40;99.90
27647;DHT22;42229;51.230;6.240;2023-11-19T12:37:19;15.50;99.90
27647;DHT22;42229;51.230;6.240;2023-11-19T12:39:45;15.70;99.90
27647;DHT22;42229;51.230;6.240;2023-11-19T12:42:11;16.00;99.90
27647;DHT22;42229;51.230;6.240;2023-11-19T12:44:38;16.20;99.90
27647;DHT22;42229;51.230;6.240;2023-11-19T12:47:05;16.40;99.90
27647;DHT22;42229;51.230;6.240;2023-11-19T12:49:32;16.60;99.90
27647;DHT22;42229;51.230;6.240;2023-11-19T12:51:59;16.80;99.90
27647;DHT22;42229;51.230;6.240;2023-11-19T12:54:32;17.00;99.90
27647;DHT22;42229;51.230;6.240;2023-11-19T12:56:59;17.20;99.90
27647;DHT22;42229;51.230;6.240;2023-11-19T12:59:25;17.40;99.90
27647;DHT22;42229;51.230;6.240;2023-11-19T13:01:53;17.50;99.90
27647;DHT22;42229;51.230;6.240;2023-11-19T13:04:23;17.60;99.90
27647;DHT22;42229;51.230;6.240;2023-11-19T13:06:53;17.70;99.90
27647;DHT22;42229;51.230;6.240;2023-11-19T13:09:23;17.80;99.90
27647;DHT22;42229;51.230;6.240;2023-11-19T13:11:53;17.90;99.90
27647;DHT22;42229;51.230;6.240;2023-11-19T13:14:20;17.90;99.90
27647;DHT22;42229;51.230;6.240;2023-11-19T13:16:46;18.00;99.90
27647;DHT22;42229;51.230;6.240;2023-11-19T13:19:13;18.10;99.90
27647;DHT22;42229;51.230;6.240;2023-11-19T13:21:42;18.10;99.90
27647;DHT22;42229;51.230;6.240;2023-11-19T13:24:08;18.10;99.90
27647;DHT22;42229;51.230;6.240;2023-11-19T13:26:34;18.00;99.90
27647;DHT22;42229;51.230;6.240;2023-11-19T13:29:00;17.80;99.90
27647;DHT22;42229;51.230;6.240;2023-11-19T13:31:27;17.70;99.90
27647;DHT22;42229;51.230;6.240;2023-11-19T13:33:53;17.50;99.90
27647;DHT22;42229;51.230;6.240;2023-11-19T13:36:19;17.30;99.90
27647;DHT22;42229;51.230;6.240;2023-11-19T13:38:45;16.90;99.90
27647;DHT22;42229;51.230;6.240;2023-11-19T13:41:12;16.80;99.90
27647;DHT22;42229;51.230;6.240;2023-11-19T13:43:39;16.70;99.90
27647;DHT22;42229;51.230;6.240;2023-11-19T13:46:06;16.40;99.90
27647;DHT22;42229;51.230;6.240;2023-11-19T13:48:32;16.30;99.90
27647;DHT22;42229;51.230;6.240;2023-11-19T13:50:58;16.10;99.90
27647;DHT22;42229;51.230;6.240;2023-11-19T13:53:25;15.90;99.90
27647;DHT22;42229;51.230;6.240;2023-11-19T13:55:53;15.80;99.90
27647;DHT22;42229;51.230;6.240;2023-11-19T13:58:19;15.60;99.90
27647;DHT22;42229;51.230;6.240;2023-11-19T14:00:45;15.50;99.90
27647;DHT22;42229;51.230;6.240;2023-11-19T14:03:11;15.30;99.90
27647;DHT22;42229;51.230;6.240;2023-11-19T14:05:38;15.20;99.90
27647;DHT22;42229;51.230;6.240;2023-11-19T14:08:05;15.10;99.90
27647;DHT22;42229;51.230;6.240;2023-11-19T14:10:40;14.90;99.90
27647;DHT22;42229;51.230;6.240;2023-11-19T14:13:06;14.70;99.90
27647;DHT22;42229;51.230;6.240;2023-11-19T14:15:33;14.60;99.90
27647;DHT22;42229;51.230;6.240;2023-11-19T14:18:00;14.40;99.90
27647;DHT22;42229;51.230;6.240;2023-11-19T14:20:26;14.20;99.90
27647;DHT22;42229;51.230;6.240;2023-11-19T14:22:52;14.00;99.90
27647;DHT22;42229;51.230;6.240;2023-11-19T14:25:18;13.90;99.90
27647;DHT22;42229;51.230;6.240;2023-11-19T14:27:45;13.80;99.90
27647;DHT22;42229;51.230;6.240;2023-11-19T14:30:14;13.70;99.90
27647;DHT22;42229;51.230;6.240;2023-11-19T14:32:40;13.60;99.90
27647;DHT22;42229;51.230;6.240;2023-11-19T14:35:11;13.50;99.90
27647;DHT22;42229;51.230;6.240;2023-11-19T14:37:38;13.40;99.90
27647;DHT22;42229;51.230;6.240;2023-11-19T14:40:04;13.40;99.90
27647;DHT22;42229;51.230;6.240;2023-11-19T14:42:32;13.40;99.90
27647;DHT22;42229;51.230;6.240;2023-11-19T14:44:58;13.30;99.90
27647;DHT22;42229;51.230;6.240;2023-11-19T14:47:24;13.30;99.90
27647;DHT22;42229;51.230;6.240;2023-11-19T14:49:51;13.30;99.90
27647;DHT22;42229;51.230;6.240;2023-11-19T14:52:17;13.30;99.90
27647;DHT22;42229;51.230;6.240;2023-11-19T14:54:43;13.30;99.90
27647;DHT22;42229;51.230;6.240;2023-11-19T14:57:09;13.30;99.90
27647;DHT22;42229;51.230;6.240;2023-11-19T14:59:36;13.20;99.90
27647;DHT22;42229;51.230;6.240;2023-11-19T15:02:03;13.20;99.90
27647;DHT22;42229;51.230;6.240;2023-11-19T15:04:29;13.20;99.90
27647;DHT22;42229;51.230;6.240;2023-11-19T15:06:56;13.20;99.90
27647;DHT22;42229;51.230;6.240;2023-11-19T15:09:22;13.20;99.90
27647;DHT22;42229;51.230;6.240;2023-11-19T15:11:49;13.10;99.90
27647;DHT22;42229;51.230;6.240;2023-11-19T15:14:15;13.20;99.90
27647;DHT22;42229;51.230;6.240;2023-11-19T15:16:44;13.10;99.90
27647;DHT22;42229;51.230;6.240;2023-11-19T15:19:12;13.10;99.90
27647;DHT22;42229;51.230;6.240;2023-11-19T15:21:38;13.20;99.90
27647;DHT22;42229;51.230;6.240;2023-11-19T15:24:05;13.20;99.90
27647;DHT22;42229;51.230;6.240;2023-11-19T15:26:33;13.20;99.90
27647;DHT22;42229;51.230;6.240;2023-11-19T15:29:00;13.10;99.90
27647;DHT22;42229;51.230;6.240;2023-11-19T15:31:26;13.10;99.90
27647;DHT22;42229;51.230;6.240;2023-11-19T15:33:52;13.10;99.90
27647;DHT22;42229;51.230;6.240;2023-11-19T15:36:18;13.20;99.90
27647;DHT22;42229;51.230;6.240;2023-11-19T15:38:45;13.20;99.90
27647;DHT22;42229;51.230;6.240;2023-11-19T15:41:11;13.20;99.90
27647;DHT22;42229;51.230;6.240;2023-11-19T15:43:37;13.30;99.90
27647;DHT22;42229;51.230;6.240;2023-11-19T15:46:07;13.20;99.90
27647;DHT22;42229;51.230;6.240;2023-11-19T15:48:34;13.30;99.90
27647;DHT22;42229;51.230;6.240;2023-11-19T15:51:01;13.20;99.90
27647;DHT22;42229;51.230;6.240;2023-11-19T15:53:29;13.20;99.90
27647;DHT22;42229;51.230;6.240;2023-11-19T15:55:57;13.20;99.90